createdAt,value
2017-03-22T00:00:04.275Z,0
2017-03-22T00:00:36.528Z,0
2017-03-22T00:01:08.793Z,0
2017-03-22T00:01:41.054Z,0
2017-03-22T00:02:13.343Z,0
2017-03-22T00:02:45.660Z,0
2017-03-22T00:03:17.966Z,0
2017-03-22T00:03:50.294Z,0
2017-03-22T00:04:22.616Z,0
2017-03-22T00:04:54.920Z,0
2017-03-22T00:05:27.254Z,0
2017-03-22T00:05:59.592Z,0
2017-03-22T00:06:31.922Z,0
2017-03-22T00:07:04.245Z,0
2017-03-22T00:07:36.551Z,0
2017-03-22T00:08:08.877Z,0
2017-03-22T00:08:41.190Z,0
2017-03-22T00:09:13.570Z,0
2017-03-22T00:09:45.874Z,0
2017-03-22T00:10:18.182Z,0
2017-03-22T00:10:50.489Z,0
2017-03-22T00:11:22.790Z,0
2017-03-22T00:11:55.056Z,0
2017-03-22T00:12:28.293Z,0
2017-03-22T00:13:00.560Z,0
2017-03-22T00:13:32.827Z,0
2017-03-22T00:14:05.083Z,0
2017-03-22T00:14:37.343Z,0
2017-03-22T00:15:09.581Z,0
2017-03-22T00:15:41.925Z,0
2017-03-22T00:16:14.191Z,0
2017-03-22T00:16:46.461Z,0
2017-03-22T00:17:18.759Z,0
2017-03-22T00:17:51.796Z,0
2017-03-22T00:18:24.714Z,0
2017-03-22T00:18:56.991Z,0
2017-03-22T00:19:29.283Z,0
2017-03-22T00:20:02.325Z,0
2017-03-22T00:20:34.582Z,0
2017-03-22T00:21:06.856Z,0
2017-03-22T00:21:39.124Z,0
2017-03-22T00:22:11.384Z,0
2017-03-22T00:22:44.306Z,0
2017-03-22T00:23:16.573Z,0
2017-03-22T00:23:48.855Z,0
2017-03-22T00:24:21.612Z,0
2017-03-22T00:24:53.961Z,0
2017-03-22T00:25:26.217Z,0
2017-03-22T00:25:58.468Z,0
2017-03-22T00:26:30.774Z,0
2017-03-22T00:27:03.645Z,0
2017-03-22T00:27:35.910Z,0
2017-03-22T00:28:08.172Z,0
2017-03-22T00:28:40.429Z,0
2017-03-22T00:29:13.611Z,0
2017-03-22T00:29:45.867Z,0
2017-03-22T00:30:18.126Z,0
2017-03-22T00:30:50.376Z,0
2017-03-22T00:31:22.635Z,0
2017-03-22T00:31:54.939Z,0
2017-03-22T00:32:27.251Z,0
2017-03-22T00:32:59.553Z,0
2017-03-22T00:33:31.874Z,0
2017-03-22T00:34:04.197Z,0
2017-03-22T00:34:36.500Z,0
2017-03-22T00:35:08.796Z,0
2017-03-22T00:35:41.103Z,0
2017-03-22T00:36:13.404Z,0
2017-03-22T00:36:45.729Z,0
2017-03-22T00:37:18.039Z,0
2017-03-22T00:37:50.371Z,0
2017-03-22T00:38:22.690Z,0
2017-03-22T00:38:55.001Z,0
2017-03-22T00:39:27.331Z,0
2017-03-22T00:39:59.655Z,0
2017-03-22T00:40:31.971Z,0
2017-03-22T00:41:04.278Z,0
2017-03-22T00:41:36.597Z,0
2017-03-22T00:42:08.896Z,0
2017-03-22T00:42:41.212Z,0
2017-03-22T00:43:13.536Z,0
2017-03-22T00:43:45.852Z,0
2017-03-22T00:44:18.155Z,0
2017-03-22T00:44:50.464Z,0
2017-03-22T00:45:22.780Z,0
2017-03-22T00:45:55.089Z,0
2017-03-22T00:46:27.387Z,0
2017-03-22T00:46:59.689Z,0
2017-03-22T00:47:32.001Z,0
2017-03-22T00:48:04.314Z,0
2017-03-22T00:48:36.631Z,0
2017-03-22T00:49:08.964Z,0
2017-03-22T00:49:41.274Z,0
2017-03-22T00:50:13.575Z,0
2017-03-22T00:50:45.863Z,0
2017-03-22T00:51:18.162Z,0
2017-03-22T00:51:50.469Z,0
2017-03-22T00:52:22.787Z,0
2017-03-22T00:52:55.115Z,0
2017-03-22T00:53:27.442Z,0
2017-03-22T00:53:59.769Z,0
2017-03-22T00:54:32.082Z,0
2017-03-22T00:55:04.392Z,0
2017-03-22T00:55:36.710Z,0
2017-03-22T00:56:09.066Z,0
2017-03-22T00:56:41.358Z,0
2017-03-22T00:57:13.661Z,0
2017-03-22T00:57:45.987Z,0
2017-03-22T00:58:18.310Z,0
2017-03-22T00:58:50.616Z,0
2017-03-22T00:59:22.927Z,0
2017-03-22T00:59:55.233Z,0
2017-03-22T01:00:27.543Z,0
2017-03-22T01:00:59.851Z,0
2017-03-22T01:01:32.155Z,0
2017-03-22T01:02:04.431Z,0
2017-03-22T01:02:36.697Z,0
2017-03-22T01:03:08.991Z,0
2017-03-22T01:03:41.386Z,0
2017-03-22T01:04:13.643Z,0
2017-03-22T01:04:45.909Z,0
2017-03-22T01:05:18.170Z,0
2017-03-22T01:05:50.438Z,0
2017-03-22T01:06:22.820Z,0
2017-03-22T01:06:55.079Z,0
2017-03-22T01:07:27.335Z,0
2017-03-22T01:08:00.185Z,0
2017-03-22T01:08:32.477Z,0
2017-03-22T01:09:04.729Z,0
2017-03-22T01:09:36.992Z,0
2017-03-22T01:10:09.260Z,0
2017-03-22T01:10:41.513Z,0
2017-03-22T01:11:13.766Z,0
2017-03-22T01:11:46.748Z,0
2017-03-22T01:12:19.055Z,0
2017-03-22T01:12:51.367Z,0
2017-03-22T01:13:23.671Z,0
2017-03-22T01:13:56.013Z,0
2017-03-22T01:14:28.332Z,0
2017-03-22T01:15:00.656Z,0
2017-03-22T01:15:32.953Z,0
2017-03-22T01:16:05.257Z,0
2017-03-22T01:16:37.568Z,0
2017-03-22T01:17:09.878Z,0
2017-03-22T01:17:42.180Z,0
2017-03-22T01:18:14.509Z,0
2017-03-22T01:18:46.828Z,0
2017-03-22T01:19:19.163Z,0
2017-03-22T01:19:51.510Z,0
2017-03-22T01:20:23.828Z,0
2017-03-22T01:20:56.134Z,0
2017-03-22T01:21:28.454Z,0
2017-03-22T01:22:00.723Z,0
2017-03-22T01:22:32.973Z,0
2017-03-22T01:23:05.225Z,0
2017-03-22T01:23:37.492Z,0
2017-03-22T01:24:10.233Z,0
2017-03-22T01:24:42.486Z,0
2017-03-22T01:25:14.741Z,0
2017-03-22T01:25:47.008Z,0
2017-03-22T01:26:19.280Z,0
2017-03-22T01:26:51.539Z,0
2017-03-22T01:27:23.788Z,0
2017-03-22T01:27:56.049Z,0
2017-03-22T01:28:28.296Z,0
2017-03-22T01:29:00.566Z,0
2017-03-22T01:29:32.837Z,0
2017-03-22T01:30:05.092Z,0
2017-03-22T01:30:37.346Z,0
2017-03-22T01:31:09.600Z,0
2017-03-22T01:31:41.868Z,0
2017-03-22T01:32:14.171Z,0
2017-03-22T01:32:46.495Z,0
2017-03-22T01:33:18.806Z,0
2017-03-22T01:33:51.111Z,0
2017-03-22T01:34:23.476Z,0
2017-03-22T01:34:55.779Z,0
2017-03-22T01:35:28.098Z,0
2017-03-22T01:36:00.411Z,0
2017-03-22T01:36:32.720Z,0
2017-03-22T01:37:05.010Z,0
2017-03-22T01:37:37.317Z,0
2017-03-22T01:38:09.638Z,0
2017-03-22T01:38:41.962Z,0
2017-03-22T01:39:14.281Z,0
2017-03-22T01:39:46.584Z,0
2017-03-22T01:40:18.884Z,0
2017-03-22T01:40:51.179Z,0
2017-03-22T01:41:23.474Z,0
2017-03-22T01:41:55.793Z,0
2017-03-22T01:42:28.086Z,0
2017-03-22T01:43:00.388Z,0
2017-03-22T01:43:32.695Z,0
2017-03-22T01:44:05.056Z,0
2017-03-22T01:44:37.370Z,0
2017-03-22T01:45:09.683Z,0
2017-03-22T01:45:41.990Z,0
2017-03-22T01:46:14.281Z,0
2017-03-22T01:46:46.578Z,0
2017-03-22T01:47:18.927Z,0
2017-03-22T01:47:51.229Z,0
2017-03-22T01:48:23.557Z,0
2017-03-22T01:48:55.859Z,0
2017-03-22T01:49:28.175Z,0
2017-03-22T01:50:00.495Z,0
2017-03-22T01:50:32.833Z,0
2017-03-22T01:51:05.150Z,0
2017-03-22T01:51:37.490Z,0
2017-03-22T01:52:09.786Z,0
2017-03-22T01:52:42.098Z,0
2017-03-22T01:53:14.421Z,0
2017-03-22T01:53:46.727Z,0
2017-03-22T01:54:19.056Z,0
2017-03-22T01:54:51.374Z,0
2017-03-22T01:55:23.683Z,0
2017-03-22T01:55:56.030Z,0
2017-03-22T01:56:28.326Z,0
2017-03-22T01:57:00.629Z,0
2017-03-22T01:57:32.929Z,0
2017-03-22T01:58:05.254Z,0
2017-03-22T01:58:37.612Z,0
2017-03-22T01:59:09.911Z,0
2017-03-22T01:59:42.217Z,0
2017-03-22T02:00:14.524Z,0
2017-03-22T02:00:46.830Z,0
2017-03-22T02:01:19.141Z,0
2017-03-22T02:01:51.432Z,0
2017-03-22T02:02:23.741Z,0
2017-03-22T02:02:56.051Z,0
2017-03-22T02:03:28.380Z,0
2017-03-22T02:04:00.702Z,0
2017-03-22T02:04:33.011Z,0
2017-03-22T02:05:05.327Z,0
2017-03-22T02:05:37.630Z,0
2017-03-22T02:06:09.942Z,0
2017-03-22T02:06:42.249Z,0
2017-03-22T02:07:14.551Z,0
2017-03-22T02:07:46.859Z,0
2017-03-22T02:08:19.173Z,0
2017-03-22T02:08:51.496Z,0
2017-03-22T02:09:23.804Z,0
2017-03-22T02:09:56.137Z,0
2017-03-22T02:10:28.470Z,0
2017-03-22T02:11:00.780Z,0
2017-03-22T02:11:33.087Z,0
2017-03-22T02:12:05.366Z,0
2017-03-22T02:12:38.371Z,0
2017-03-22T02:13:11.192Z,0
2017-03-22T02:13:44.308Z,0
2017-03-22T02:14:16.601Z,0
2017-03-22T02:14:48.867Z,0
2017-03-22T02:15:21.134Z,0
2017-03-22T02:15:53.382Z,0
2017-03-22T02:16:25.644Z,0
2017-03-22T02:16:57.905Z,0
2017-03-22T02:17:30.796Z,0
2017-03-22T02:18:03.076Z,0
2017-03-22T02:18:35.354Z,0
2017-03-22T02:19:07.607Z,0
2017-03-22T02:19:39.872Z,0
2017-03-22T02:20:12.768Z,0
2017-03-22T02:20:45.023Z,0
2017-03-22T02:21:17.282Z,0
2017-03-22T02:21:49.585Z,0
2017-03-22T02:22:21.905Z,0
2017-03-22T02:22:54.227Z,0
2017-03-22T02:23:26.554Z,0
2017-03-22T02:23:58.883Z,0
2017-03-22T02:24:31.172Z,0
2017-03-22T02:25:03.482Z,0
2017-03-22T02:25:35.800Z,0
2017-03-22T02:26:08.100Z,0
2017-03-22T02:26:40.400Z,0
2017-03-22T02:27:12.711Z,0
2017-03-22T02:27:45.020Z,0
2017-03-22T02:28:17.324Z,0
2017-03-22T02:28:49.640Z,0
2017-03-22T02:29:21.953Z,0
2017-03-22T02:29:54.275Z,0
2017-03-22T02:30:26.569Z,0
2017-03-22T02:30:58.863Z,0
2017-03-22T02:31:31.160Z,0
2017-03-22T02:32:03.471Z,0
2017-03-22T02:32:35.793Z,0
2017-03-22T02:33:08.107Z,0
2017-03-22T02:33:40.406Z,0
2017-03-22T02:34:12.756Z,0
2017-03-22T02:34:45.070Z,0
2017-03-22T02:35:17.373Z,0
2017-03-22T02:35:49.670Z,0
2017-03-22T02:36:21.968Z,0
2017-03-22T02:36:54.275Z,0
2017-03-22T02:37:26.588Z,0
2017-03-22T02:37:58.945Z,0
2017-03-22T02:38:31.272Z,0
2017-03-22T02:39:03.595Z,0
2017-03-22T02:39:35.905Z,0
2017-03-22T02:40:08.195Z,0
2017-03-22T02:40:40.505Z,0
2017-03-22T02:41:12.832Z,0
2017-03-22T02:41:45.142Z,0
2017-03-22T02:42:17.444Z,0
2017-03-22T02:42:49.758Z,0
2017-03-22T02:43:22.079Z,0
2017-03-22T02:43:54.406Z,0
2017-03-22T02:44:26.726Z,0
2017-03-22T02:44:59.059Z,0
2017-03-22T02:45:31.369Z,0
2017-03-22T02:46:03.691Z,0
2017-03-22T02:46:36.005Z,0
2017-03-22T02:47:08.307Z,0
2017-03-22T02:47:40.626Z,0
2017-03-22T02:48:12.937Z,0
2017-03-22T02:48:45.244Z,0
2017-03-22T02:49:17.573Z,0
2017-03-22T02:49:49.899Z,0
2017-03-22T02:50:22.217Z,0
2017-03-22T02:50:54.525Z,0
2017-03-22T02:51:26.836Z,0
2017-03-22T02:51:59.138Z,0
2017-03-22T02:52:31.450Z,0
2017-03-22T02:53:03.742Z,0
2017-03-22T02:53:36.055Z,0
2017-03-22T02:54:08.355Z,0
2017-03-22T02:54:40.675Z,0
2017-03-22T02:55:12.972Z,0
2017-03-22T02:55:45.300Z,0
2017-03-22T02:56:17.625Z,0
2017-03-22T02:56:49.927Z,0
2017-03-22T02:57:22.235Z,0
2017-03-22T02:57:54.548Z,0
2017-03-22T02:58:26.867Z,0
2017-03-22T02:58:59.179Z,0
2017-03-22T02:59:31.489Z,0
2017-03-22T03:00:03.800Z,0
2017-03-22T03:00:36.096Z,0
2017-03-22T03:01:08.390Z,0
2017-03-22T03:01:40.695Z,0
2017-03-22T03:02:13.020Z,0
2017-03-22T03:02:45.333Z,0
2017-03-22T03:03:17.706Z,0
2017-03-22T03:03:50.030Z,0
2017-03-22T03:04:22.353Z,0
2017-03-22T03:04:54.680Z,0
2017-03-22T03:05:27.001Z,0
2017-03-22T03:05:59.311Z,0
2017-03-22T03:06:31.616Z,0
2017-03-22T03:07:03.933Z,0
2017-03-22T03:07:36.247Z,0
2017-03-22T03:08:08.555Z,0
2017-03-22T03:08:40.883Z,0
2017-03-22T03:09:13.186Z,0
2017-03-22T03:09:45.483Z,0
2017-03-22T03:10:17.778Z,0
2017-03-22T03:10:50.079Z,0
2017-03-22T03:11:22.366Z,0
2017-03-22T03:11:54.641Z,0
2017-03-22T03:12:26.888Z,0
2017-03-22T03:12:59.151Z,0
2017-03-22T03:13:31.421Z,0
2017-03-22T03:14:03.685Z,0
2017-03-22T03:14:35.985Z,0
2017-03-22T03:15:08.233Z,0
2017-03-22T03:15:40.485Z,0
2017-03-22T03:16:12.741Z,0
2017-03-22T03:16:44.995Z,0
2017-03-22T03:17:17.283Z,0
2017-03-22T03:17:49.547Z,0
2017-03-22T03:18:21.809Z,0
2017-03-22T03:18:54.093Z,0
2017-03-22T03:19:26.354Z,0
2017-03-22T03:19:58.618Z,0
2017-03-22T03:20:30.889Z,0
2017-03-22T03:21:03.151Z,0
2017-03-22T03:21:35.423Z,0
2017-03-22T03:22:07.705Z,0
2017-03-22T03:22:40.013Z,0
2017-03-22T03:23:12.343Z,0
2017-03-22T03:23:44.662Z,0
2017-03-22T03:24:16.988Z,0
2017-03-22T03:24:49.285Z,0
2017-03-22T03:25:21.593Z,0
2017-03-22T03:25:53.887Z,0
2017-03-22T03:26:26.186Z,0
2017-03-22T03:26:58.497Z,0
2017-03-22T03:27:30.803Z,0
2017-03-22T03:28:03.131Z,0
2017-03-22T03:28:35.455Z,0
2017-03-22T03:29:07.775Z,0
2017-03-22T03:29:40.082Z,0
2017-03-22T03:30:12.392Z,0
2017-03-22T03:30:44.687Z,0
2017-03-22T03:31:16.992Z,0
2017-03-22T03:31:49.302Z,0
2017-03-22T03:32:21.619Z,0
2017-03-22T03:32:53.922Z,0
2017-03-22T03:33:26.234Z,0
2017-03-22T03:33:58.553Z,0
2017-03-22T03:34:30.862Z,0
2017-03-22T03:35:03.155Z,0
2017-03-22T03:35:35.487Z,0
2017-03-22T03:36:07.814Z,0
2017-03-22T03:36:40.127Z,0
2017-03-22T03:37:12.433Z,0
2017-03-22T03:37:44.776Z,0
2017-03-22T03:38:17.099Z,0
2017-03-22T03:38:49.420Z,0
2017-03-22T03:39:21.742Z,0
2017-03-22T03:39:54.053Z,0
2017-03-22T03:40:26.350Z,0
2017-03-22T03:40:58.652Z,0
2017-03-22T03:41:30.971Z,0
2017-03-22T03:42:03.278Z,0
2017-03-22T03:42:35.601Z,0
2017-03-22T03:43:07.927Z,0
2017-03-22T03:43:40.241Z,0
2017-03-22T03:44:12.540Z,0
2017-03-22T03:44:44.857Z,0
2017-03-22T03:45:17.165Z,0
2017-03-22T03:45:49.483Z,0
2017-03-22T03:46:21.794Z,0
2017-03-22T03:46:54.139Z,0
2017-03-22T03:47:26.457Z,0
2017-03-22T03:47:58.802Z,0
2017-03-22T03:48:31.131Z,0
2017-03-22T03:49:03.444Z,0
2017-03-22T03:49:35.747Z,0
2017-03-22T03:50:08.046Z,0
2017-03-22T03:50:40.360Z,0
2017-03-22T03:51:12.679Z,0
2017-03-22T03:51:44.984Z,0
2017-03-22T03:52:17.284Z,0
2017-03-22T03:52:49.617Z,0
2017-03-22T03:53:21.970Z,0
2017-03-22T03:53:54.290Z,0
2017-03-22T03:54:26.610Z,0
2017-03-22T03:54:58.948Z,0
2017-03-22T03:55:31.267Z,0
2017-03-22T03:56:03.581Z,0
2017-03-22T03:56:35.887Z,0
2017-03-22T03:57:08.190Z,0
2017-03-22T03:57:40.504Z,0
2017-03-22T03:58:12.829Z,0
2017-03-22T03:58:45.123Z,0
2017-03-22T03:59:17.449Z,0
2017-03-22T03:59:49.788Z,0
2017-03-22T04:00:22.083Z,0
2017-03-22T04:00:54.383Z,0
2017-03-22T04:01:26.698Z,0
2017-03-22T04:01:58.960Z,0
2017-03-22T04:02:31.223Z,0
2017-03-22T04:03:03.486Z,0
2017-03-22T04:03:35.739Z,0
2017-03-22T04:04:08.007Z,0
2017-03-22T04:04:40.364Z,0
2017-03-22T04:05:12.648Z,0
2017-03-22T04:05:44.899Z,0
2017-03-22T04:06:17.151Z,0
2017-03-22T04:06:49.400Z,0
2017-03-22T04:07:21.658Z,0
2017-03-22T04:07:54.816Z,0
2017-03-22T04:08:27.098Z,0
2017-03-22T04:08:59.326Z,0
2017-03-22T04:09:32.349Z,0
2017-03-22T04:10:04.635Z,0
2017-03-22T04:10:36.894Z,0
2017-03-22T04:11:09.157Z,0
2017-03-22T04:11:41.421Z,0
2017-03-22T04:12:13.730Z,0
2017-03-22T04:12:46.053Z,0
2017-03-22T04:13:18.392Z,0
2017-03-22T04:13:50.698Z,0
2017-03-22T04:14:23.018Z,0
2017-03-22T04:14:55.344Z,0
2017-03-22T04:15:27.658Z,0
2017-03-22T04:15:59.955Z,0
2017-03-22T04:16:32.250Z,0
2017-03-22T04:17:04.583Z,0
2017-03-22T04:17:36.894Z,0
2017-03-22T04:18:09.225Z,0
2017-03-22T04:18:41.552Z,0
2017-03-22T04:19:13.885Z,0
2017-03-22T04:19:46.204Z,0
2017-03-22T04:20:18.510Z,0
2017-03-22T04:20:50.821Z,0
2017-03-22T04:21:23.127Z,0
2017-03-22T04:21:55.388Z,0
2017-03-22T04:22:27.638Z,0
2017-03-22T04:22:59.898Z,0
2017-03-22T04:23:32.171Z,0
2017-03-22T04:24:04.427Z,0
2017-03-22T04:24:36.705Z,0
2017-03-22T04:25:08.966Z,0
2017-03-22T04:25:41.201Z,0
2017-03-22T04:26:14.210Z,0
2017-03-22T04:26:46.473Z,0
2017-03-22T04:27:18.731Z,0
2017-03-22T04:27:51.732Z,0
2017-03-22T04:28:24.008Z,0
2017-03-22T04:28:56.255Z,0
2017-03-22T04:29:28.509Z,0
2017-03-22T04:30:00.787Z,0
2017-03-22T04:30:33.049Z,0
2017-03-22T04:31:05.303Z,0
2017-03-22T04:31:37.570Z,0
2017-03-22T04:32:09.818Z,0
2017-03-22T04:32:42.094Z,0
2017-03-22T04:33:14.355Z,0
2017-03-22T04:33:47.263Z,0
2017-03-22T04:34:19.521Z,0
2017-03-22T04:34:51.783Z,0
2017-03-22T04:35:24.030Z,0
2017-03-22T04:35:56.280Z,0
2017-03-22T04:36:28.596Z,0
2017-03-22T04:37:00.868Z,0
2017-03-22T04:37:33.141Z,0
2017-03-22T04:38:05.412Z,0
2017-03-22T04:38:38.328Z,0
2017-03-22T04:39:10.587Z,0
2017-03-22T04:39:42.858Z,0
2017-03-22T04:40:15.129Z,0
2017-03-22T04:40:47.389Z,0
2017-03-22T04:41:19.661Z,0
2017-03-22T04:41:51.959Z,0
2017-03-22T04:42:26.306Z,0
2017-03-22T04:42:58.641Z,0
2017-03-22T04:43:30.946Z,0
2017-03-22T04:44:03.272Z,0
2017-03-22T04:44:35.574Z,0
2017-03-22T04:45:07.869Z,0
2017-03-22T04:45:40.169Z,0
2017-03-22T04:46:12.485Z,0
2017-03-22T04:46:44.790Z,0
2017-03-22T04:47:17.097Z,0
2017-03-22T04:47:49.409Z,0
2017-03-22T04:48:21.719Z,0
2017-03-22T04:48:54.041Z,0
2017-03-22T04:49:26.341Z,0
2017-03-22T04:49:58.655Z,0
2017-03-22T04:50:30.966Z,0
2017-03-22T04:51:03.268Z,0
2017-03-22T04:51:35.561Z,0
2017-03-22T04:52:07.824Z,0
2017-03-22T04:52:40.092Z,0
2017-03-22T04:53:12.385Z,0
2017-03-22T04:53:45.230Z,0
2017-03-22T04:54:17.496Z,0
2017-03-22T04:54:49.765Z,0
2017-03-22T04:55:22.029Z,0
2017-03-22T04:55:54.278Z,0
2017-03-22T04:56:26.605Z,0
2017-03-22T04:56:58.874Z,0
2017-03-22T04:57:31.163Z,0
2017-03-22T04:58:03.432Z,0
2017-03-22T04:58:35.711Z,0
2017-03-22T04:59:07.972Z,0
2017-03-22T04:59:40.270Z,0
2017-03-22T05:00:12.510Z,0
2017-03-22T05:00:44.782Z,0
2017-03-22T05:01:17.048Z,0
2017-03-22T05:01:49.325Z,0
2017-03-22T05:02:21.630Z,0
2017-03-22T05:02:53.948Z,0
2017-03-22T05:03:26.289Z,0
2017-03-22T05:03:58.601Z,0
2017-03-22T05:04:30.908Z,0
2017-03-22T05:05:03.216Z,0
2017-03-22T05:05:35.536Z,0
2017-03-22T05:06:07.832Z,0
2017-03-22T05:06:40.137Z,0
2017-03-22T05:07:12.455Z,0
2017-03-22T05:07:44.750Z,0
2017-03-22T05:08:17.076Z,0
2017-03-22T05:08:49.396Z,0
2017-03-22T05:09:21.718Z,0
2017-03-22T05:09:54.052Z,0
2017-03-22T05:10:26.358Z,0
2017-03-22T05:10:58.661Z,0
2017-03-22T05:11:30.955Z,0
2017-03-22T05:12:03.272Z,0
2017-03-22T05:12:35.593Z,0
2017-03-22T05:13:07.903Z,0
2017-03-22T05:13:40.202Z,0
2017-03-22T05:14:12.509Z,0
2017-03-22T05:14:44.831Z,0
2017-03-22T05:15:17.145Z,0
2017-03-22T05:15:49.465Z,0
2017-03-22T05:16:21.781Z,0
2017-03-22T05:16:54.092Z,0
2017-03-22T05:17:26.407Z,0
2017-03-22T05:17:58.729Z,0
2017-03-22T05:18:31.031Z,0
2017-03-22T05:19:03.348Z,0
2017-03-22T05:19:35.668Z,0
2017-03-22T05:20:07.973Z,0
2017-03-22T05:20:40.276Z,0
2017-03-22T05:21:12.583Z,0
2017-03-22T05:21:44.895Z,0
2017-03-22T05:22:17.200Z,0
2017-03-22T05:22:49.502Z,0
2017-03-22T05:23:21.799Z,0
2017-03-22T05:23:54.104Z,0
2017-03-22T05:24:26.416Z,0
2017-03-22T05:24:58.736Z,0
2017-03-22T05:25:31.048Z,0
2017-03-22T05:26:03.356Z,0
2017-03-22T05:26:35.670Z,0
2017-03-22T05:27:08.023Z,0
2017-03-22T05:27:40.352Z,0
2017-03-22T05:28:12.671Z,0
2017-03-22T05:28:44.985Z,0
2017-03-22T05:29:17.300Z,0
2017-03-22T05:29:49.621Z,0
2017-03-22T05:30:21.925Z,0
2017-03-22T05:30:54.231Z,5
2017-03-22T05:31:26.521Z,5
2017-03-22T05:31:58.812Z,5
2017-03-22T05:32:31.121Z,5
2017-03-22T05:33:03.436Z,5
2017-03-22T05:33:35.736Z,5
2017-03-22T05:34:08.037Z,5
2017-03-22T05:34:40.343Z,5
2017-03-22T05:35:12.661Z,5
2017-03-22T05:35:44.967Z,5
2017-03-22T05:36:17.267Z,5
2017-03-22T05:36:49.572Z,5
2017-03-22T05:37:21.881Z,5
2017-03-22T05:37:54.203Z,5
2017-03-22T05:38:26.515Z,5
2017-03-22T05:38:58.832Z,5
2017-03-22T05:39:31.132Z,5
2017-03-22T05:40:03.435Z,5
2017-03-22T05:40:35.741Z,5
2017-03-22T05:41:08.044Z,5
2017-03-22T05:41:40.341Z,5
2017-03-22T05:42:12.642Z,5
2017-03-22T05:42:44.963Z,5
2017-03-22T05:43:17.264Z,10
2017-03-22T05:43:49.585Z,10
2017-03-22T05:44:21.905Z,10
2017-03-22T05:44:54.218Z,10
2017-03-22T05:45:26.532Z,10
2017-03-22T05:45:58.835Z,10
2017-03-22T05:46:31.130Z,10
2017-03-22T05:47:03.444Z,10
2017-03-22T05:47:35.759Z,10
2017-03-22T05:48:08.068Z,10
2017-03-22T05:48:40.416Z,10
2017-03-22T05:49:12.782Z,10
2017-03-22T05:49:45.098Z,10
2017-03-22T05:50:17.405Z,10
2017-03-22T05:50:49.714Z,10
2017-03-22T05:51:22.021Z,10
2017-03-22T05:51:54.327Z,10
2017-03-22T05:52:26.626Z,10
2017-03-22T05:52:58.938Z,10
2017-03-22T05:53:31.257Z,15
2017-03-22T05:54:03.587Z,15
2017-03-22T05:54:35.903Z,15
2017-03-22T05:55:08.238Z,15
2017-03-22T05:55:40.536Z,15
2017-03-22T05:56:12.852Z,15
2017-03-22T05:56:45.197Z,15
2017-03-22T05:57:17.498Z,15
2017-03-22T05:57:49.826Z,15
2017-03-22T05:58:22.122Z,15
2017-03-22T05:58:54.434Z,15
2017-03-22T05:59:26.761Z,15
2017-03-22T05:59:59.086Z,15
2017-03-22T06:00:31.418Z,15
2017-03-22T06:01:03.737Z,15
2017-03-22T06:01:36.039Z,15
2017-03-22T06:02:08.316Z,15
2017-03-22T06:02:40.601Z,15
2017-03-22T06:03:12.863Z,15
2017-03-22T06:03:45.118Z,15
2017-03-22T06:04:17.379Z,15
2017-03-22T06:04:49.634Z,15
2017-03-22T06:05:22.839Z,15
2017-03-22T06:05:55.084Z,15
2017-03-22T06:06:27.929Z,15
2017-03-22T06:07:00.184Z,20
2017-03-22T06:07:32.440Z,20
2017-03-22T06:08:04.704Z,20
2017-03-22T06:08:36.959Z,20
2017-03-22T06:09:09.220Z,20
2017-03-22T06:09:41.504Z,20
2017-03-22T06:10:13.757Z,20
2017-03-22T06:10:46.032Z,20
2017-03-22T06:11:18.340Z,20
2017-03-22T06:11:50.639Z,25
2017-03-22T06:12:22.955Z,25
2017-03-22T06:12:55.285Z,25
2017-03-22T06:13:27.606Z,25
2017-03-22T06:13:59.933Z,30
2017-03-22T06:14:32.237Z,35
2017-03-22T06:15:04.550Z,30
2017-03-22T06:15:36.854Z,40
2017-03-22T06:16:09.158Z,40
2017-03-22T06:16:41.455Z,40
2017-03-22T06:17:13.771Z,35
2017-03-22T06:17:46.104Z,35
2017-03-22T06:18:18.407Z,35
2017-03-22T06:18:50.702Z,50
2017-03-22T06:19:23.009Z,40
2017-03-22T06:19:55.313Z,35
2017-03-22T06:20:27.624Z,35
2017-03-22T06:20:59.937Z,35
2017-03-22T06:21:32.245Z,30
2017-03-22T06:22:04.561Z,30
2017-03-22T06:22:36.866Z,30
2017-03-22T06:23:09.185Z,35
2017-03-22T06:23:41.506Z,50
2017-03-22T06:24:13.830Z,50
2017-03-22T06:24:46.163Z,50
2017-03-22T06:25:18.477Z,45
2017-03-22T06:25:50.791Z,45
2017-03-22T06:26:23.086Z,60
2017-03-22T06:26:55.415Z,50
2017-03-22T06:27:27.729Z,65
2017-03-22T06:28:00.036Z,65
2017-03-22T06:28:32.336Z,55
2017-03-22T06:29:04.656Z,65
2017-03-22T06:29:36.972Z,65
2017-03-22T06:30:09.308Z,65
2017-03-22T06:30:41.600Z,65
2017-03-22T06:31:13.910Z,65
2017-03-22T06:31:46.209Z,60
2017-03-22T06:32:19.345Z,65
2017-03-22T06:32:51.606Z,70
2017-03-22T06:33:24.372Z,70
2017-03-22T06:33:56.667Z,65
2017-03-22T06:34:28.944Z,75
2017-03-22T06:35:01.207Z,75
2017-03-22T06:35:33.467Z,70
2017-03-22T06:36:05.719Z,70
2017-03-22T06:36:38.906Z,70
2017-03-22T06:37:11.172Z,70
2017-03-22T06:37:43.451Z,75
2017-03-22T06:38:15.688Z,80
2017-03-22T06:38:47.951Z,80
2017-03-22T06:39:20.264Z,80
2017-03-22T06:39:53.410Z,75
2017-03-22T06:40:25.659Z,75
2017-03-22T06:40:57.910Z,75
2017-03-22T06:41:30.165Z,70
2017-03-22T06:42:02.469Z,70
2017-03-22T06:42:34.780Z,75
2017-03-22T06:43:07.098Z,75
2017-03-22T06:43:39.434Z,80
2017-03-22T06:44:11.775Z,80
2017-03-22T06:44:44.089Z,85
2017-03-22T06:45:16.399Z,80
2017-03-22T06:45:48.703Z,85
2017-03-22T06:46:21.006Z,85
2017-03-22T06:46:53.317Z,85
2017-03-22T06:47:25.651Z,85
2017-03-22T06:47:57.966Z,85
2017-03-22T06:48:30.292Z,85
2017-03-22T06:49:03.455Z,85
2017-03-22T06:49:35.781Z,85
2017-03-22T06:50:08.109Z,75
2017-03-22T06:50:40.421Z,75
2017-03-22T06:51:12.713Z,75
2017-03-22T06:51:45.177Z,80
2017-03-22T06:52:17.476Z,80
2017-03-22T06:52:49.792Z,80
2017-03-22T06:53:22.137Z,80
2017-03-22T06:53:54.479Z,85
2017-03-22T06:54:28.955Z,90
2017-03-22T06:55:01.310Z,85
2017-03-22T06:55:34.443Z,80
2017-03-22T06:56:06.762Z,85
2017-03-22T06:56:40.381Z,85
2017-03-22T06:57:12.680Z,85
2017-03-22T06:57:45.103Z,85
2017-03-22T06:58:18.359Z,85
2017-03-22T06:58:50.674Z,90
2017-03-22T06:59:22.992Z,90
2017-03-22T06:59:55.300Z,90
2017-03-22T07:00:27.782Z,90
2017-03-22T07:01:00.109Z,90
2017-03-22T07:01:32.440Z,95
2017-03-22T07:02:04.849Z,90
2017-03-22T07:02:37.186Z,90
2017-03-22T07:03:09.509Z,90
2017-03-22T07:03:41.818Z,90
2017-03-22T07:04:14.140Z,90
2017-03-22T07:04:46.470Z,90
2017-03-22T07:05:18.783Z,95
2017-03-22T07:05:51.091Z,95
2017-03-22T07:06:23.394Z,95
2017-03-22T07:06:55.754Z,95
2017-03-22T07:07:28.173Z,95
2017-03-22T07:08:00.487Z,95
2017-03-22T07:08:32.817Z,95
2017-03-22T07:09:05.165Z,95
2017-03-22T07:09:37.481Z,95
2017-03-22T07:10:09.787Z,95
2017-03-22T07:10:42.086Z,95
2017-03-22T07:11:14.391Z,100
2017-03-22T07:11:46.737Z,100
2017-03-22T07:12:19.031Z,100
2017-03-22T07:12:51.293Z,100
2017-03-22T07:13:23.657Z,100
2017-03-22T07:13:55.937Z,100
2017-03-22T07:14:28.220Z,100
2017-03-22T07:15:02.347Z,100
2017-03-22T07:15:35.978Z,100
2017-03-22T07:16:08.928Z,100
2017-03-22T07:16:41.173Z,100
2017-03-22T07:17:16.433Z,100
2017-03-22T07:17:48.731Z,100
2017-03-22T07:18:21.887Z,100
2017-03-22T07:18:54.905Z,100
2017-03-22T07:19:27.274Z,100
2017-03-22T07:20:00.894Z,100
2017-03-22T07:20:33.947Z,100
2017-03-22T07:21:08.006Z,100
2017-03-22T07:21:40.298Z,100
2017-03-22T07:22:13.424Z,100
2017-03-22T07:22:46.012Z,100
2017-03-22T07:23:18.422Z,100
2017-03-22T07:23:50.737Z,100
2017-03-22T07:24:23.998Z,100
2017-03-22T07:24:56.323Z,100
2017-03-22T07:25:28.749Z,100
2017-03-22T07:26:01.074Z,105
2017-03-22T07:26:33.666Z,105
2017-03-22T07:28:25.751Z,100
2017-03-22T07:28:59.454Z,95
2017-03-22T07:29:31.988Z,100
2017-03-22T07:30:04.367Z,105
2017-03-22T07:30:37.038Z,105
2017-03-22T07:31:10.434Z,105
2017-03-22T07:31:44.482Z,105
2017-03-22T07:32:16.878Z,105
2017-03-22T07:32:49.749Z,105
2017-03-22T07:33:23.103Z,105
2017-03-22T07:33:56.643Z,105
2017-03-22T07:34:29.373Z,105
2017-03-22T07:35:02.720Z,105
2017-03-22T07:35:35.222Z,105
2017-03-22T07:36:07.648Z,105
2017-03-22T07:36:39.977Z,105
2017-03-22T07:37:12.454Z,105
2017-03-22T07:37:44.776Z,105
2017-03-22T07:38:17.305Z,105
2017-03-22T07:38:49.962Z,105
2017-03-22T07:39:23.050Z,105
2017-03-22T07:39:55.350Z,105
2017-03-22T07:40:27.654Z,105
2017-03-22T07:41:00.972Z,105
2017-03-22T07:41:34.783Z,105
2017-03-22T07:42:08.410Z,100
2017-03-22T07:42:40.710Z,100
2017-03-22T07:43:13.939Z,100
2017-03-22T07:43:46.225Z,100
2017-03-22T07:44:35.559Z,100
2017-03-22T07:45:08.457Z,100
2017-03-22T07:45:40.730Z,105
2017-03-22T07:46:13.844Z,100
2017-03-22T07:46:46.111Z,100
2017-03-22T07:47:19.870Z,105
2017-03-22T07:47:53.951Z,105
2017-03-22T07:48:28.061Z,105
2017-03-22T07:49:00.378Z,105
2017-03-22T07:49:33.953Z,105
2017-03-22T07:50:07.062Z,105
2017-03-22T07:50:40.401Z,105
2017-03-22T07:51:13.888Z,105
2017-03-22T07:51:46.167Z,100
2017-03-22T07:52:18.974Z,100
2017-03-22T07:52:51.945Z,105
2017-03-22T07:53:24.969Z,100
2017-03-22T07:53:57.285Z,100